sensor_id;sensor_type;location;lat;lon;timestamp;P1;durP1;ratioP1;P2;durP2;ratioP2
32032;SDS011;31720;52.638;9.216;2024-02-04T00:02:04;9.40;;;3.65;;
32032;SDS011;31720;52.638;9.216;2024-02-04T00:05:08;11.82;;;4.20;;
32032;SDS011;31720;52.638;9.216;2024-02-04T00:08:10;12.45;;;4.00;;
32032;SDS011;31720;52.638;9.216;2024-02-04T00:11:12;8.05;;;3.90;;
32032;SDS011;31720;52.638;9.216;2024-02-04T00:14:14;10.57;;;3.47;;
32032;SDS011;31720;52.638;9.216;2024-02-04T00:17:15;15.98;;;4.72;;
32032;SDS011;31720;52.638;9.216;2024-02-04T00:20:18;16.15;;;4.63;;
32032;SDS011;31720;52.638;9.216;2024-02-04T00:23:19;10.23;;;3.40;;
32032;SDS011;31720;52.638;9.216;2024-02-04T00:26:21;24.80;;;4.40;;
32032;SDS011;31720;52.638;9.216;2024-02-04T00:29:22;12.10;;;4.03;;
32032;SDS011;31720;52.638;9.216;2024-02-04T00:32:24;12.77;;;3.78;;
32032;SDS011;31720;52.638;9.216;2024-02-04T00:35:27;9.98;;;3.95;;
32032;SDS011;31720;52.638;9.216;2024-02-04T00:38:28;12.70;;;4.10;;
32032;SDS011;31720;52.638;9.216;2024-02-04T00:41:29;15.68;;;4.13;;
32032;SDS011;31720;52.638;9.216;2024-02-04T00:44:31;17.05;;;5.15;;
32032;SDS011;31720;52.638;9.216;2024-02-04T00:47:32;11.40;;;3.90;;
32032;SDS011;31720;52.638;9.216;2024-02-04T00:50:35;12.48;;;4.00;;
32032;SDS011;31720;52.638;9.216;2024-02-04T00:53:36;7.72;;;3.75;;
32032;SDS011;31720;52.638;9.216;2024-02-04T00:56:37;10.98;;;4.72;;
32032;SDS011;31720;52.638;9.216;2024-02-04T00:59:39;15.57;;;4.43;;
32032;SDS011;31720;52.638;9.216;2024-02-04T01:02:40;12.75;;;4.75;;
32032;SDS011;31720;52.638;9.216;2024-02-04T01:05:43;8.00;;;4.28;;
32032;SDS011;31720;52.638;9.216;2024-02-04T01:08:44;13.35;;;4.85;;
32032;SDS011;31720;52.638;9.216;2024-02-04T01:11:45;9.73;;;4.28;;
32032;SDS011;31720;52.638;9.216;2024-02-04T01:14:47;17.02;;;4.57;;
32032;SDS011;31720;52.638;9.216;2024-02-04T01:17:48;15.77;;;5.35;;
32032;SDS011;31720;52.638;9.216;2024-02-04T01:20:51;13.05;;;4.63;;
32032;SDS011;31720;52.638;9.216;2024-02-04T01:23:52;13.27;;;5.47;;
32032;SDS011;31720;52.638;9.216;2024-02-04T01:26:54;18.23;;;5.38;;
32032;SDS011;31720;52.638;9.216;2024-02-04T01:29:55;20.60;;;6.22;;
32032;SDS011;31720;52.638;9.216;2024-02-04T01:32:57;18.25;;;4.90;;
32032;SDS011;31720;52.638;9.216;2024-02-04T01:35:59;10.57;;;5.07;;
32032;SDS011;31720;52.638;9.216;2024-02-04T01:39:01;19.75;;;5.28;;
32032;SDS011;31720;52.638;9.216;2024-02-04T01:42:02;11.05;;;4.55;;
32032;SDS011;31720;52.638;9.216;2024-02-04T01:45:05;11.68;;;5.10;;
32032;SDS011;31720;52.638;9.216;2024-02-04T01:48:07;12.95;;;4.53;;
32032;SDS011;31720;52.638;9.216;2024-02-04T01:51:10;12.75;;;5.40;;
32032;SDS011;31720;52.638;9.216;2024-02-04T01:54:13;20.25;;;6.65;;
32032;SDS011;31720;52.638;9.216;2024-02-04T01:57:15;12.80;;;4.93;;
32032;SDS011;31720;52.638;9.216;2024-02-04T02:00:18;19.65;;;6.20;;
32032;SDS011;31720;52.638;9.216;2024-02-04T02:03:19;21.83;;;7.10;;
32032;SDS011;31720;52.638;9.216;2024-02-04T02:06:23;15.02;;;6.72;;
32032;SDS011;31720;52.638;9.216;2024-02-04T02:09:25;17.75;;;6.75;;
32032;SDS011;31720;52.638;9.216;2024-02-04T02:12:26;19.08;;;6.82;;
32032;SDS011;31720;52.638;9.216;2024-02-04T02:15:34;15.20;;;6.80;;
32032;SDS011;31720;52.638;9.216;2024-02-04T02:18:40;17.83;;;7.15;;
32032;SDS011;31720;52.638;9.216;2024-02-04T02:21:50;19.35;;;6.63;;
32032;SDS011;31720;52.638;9.216;2024-02-04T02:24:58;17.77;;;6.28;;
32032;SDS011;31720;52.638;9.216;2024-02-04T02:28:00;19.33;;;6.93;;
32032;SDS011;31720;52.638;9.216;2024-02-04T02:31:01;21.48;;;6.70;;
32032;SDS011;31720;52.638;9.216;2024-02-04T02:34:03;26.55;;;7.10;;
32032;SDS011;31720;52.638;9.216;2024-02-04T02:37:07;14.20;;;6.40;;
32032;SDS011;31720;52.638;9.216;2024-02-04T02:40:23;13.48;;;6.03;;
32032;SDS011;31720;52.638;9.216;2024-02-04T02:43:30;23.45;;;5.70;;
32032;SDS011;31720;52.638;9.216;2024-02-04T02:46:34;20.80;;;6.38;;
32032;SDS011;31720;52.638;9.216;2024-02-04T02:49:37;16.90;;;6.22;;
32032;SDS011;31720;52.638;9.216;2024-02-04T02:52:38;17.33;;;4.90;;
32032;SDS011;31720;52.638;9.216;2024-02-04T02:55:41;19.10;;;6.47;;
32032;SDS011;31720;52.638;9.216;2024-02-04T02:58:42;13.70;;;5.32;;
32032;SDS011;31720;52.638;9.216;2024-02-04T03:01:44;16.48;;;5.00;;
32032;SDS011;31720;52.638;9.216;2024-02-04T03:04:45;16.45;;;4.55;;
32032;SDS011;31720;52.638;9.216;2024-02-04T03:07:46;8.15;;;3.97;;
32032;SDS011;31720;52.638;9.216;2024-02-04T03:10:49;13.07;;;3.78;;
32032;SDS011;31720;52.638;9.216;2024-02-04T03:13:50;12.75;;;3.90;;
32032;SDS011;31720;52.638;9.216;2024-02-04T03:16:52;10.02;;;3.70;;
32032;SDS011;31720;52.638;9.216;2024-02-04T03:19:53;17.58;;;4.38;;
32032;SDS011;31720;52.638;9.216;2024-02-04T03:22:55;11.57;;;4.20;;
32032;SDS011;31720;52.638;9.216;2024-02-04T03:25:57;12.75;;;3.13;;
32032;SDS011;31720;52.638;9.216;2024-02-04T03:28:59;13.52;;;3.45;;
32032;SDS011;31720;52.638;9.216;2024-02-04T03:32:01;9.77;;;3.08;;
32032;SDS011;31720;52.638;9.216;2024-02-04T03:35:03;9.65;;;2.30;;
32032;SDS011;31720;52.638;9.216;2024-02-04T03:38:05;12.45;;;3.03;;
32032;SDS011;31720;52.638;9.216;2024-02-04T03:41:07;9.68;;;2.92;;
32032;SDS011;31720;52.638;9.216;2024-02-04T03:44:09;8.40;;;3.08;;
32032;SDS011;31720;52.638;9.216;2024-02-04T03:47:10;13.23;;;2.92;;
32032;SDS011;31720;52.638;9.216;2024-02-04T03:50:11;8.73;;;2.90;;
32032;SDS011;31720;52.638;9.216;2024-02-04T03:53:13;9.70;;;2.80;;
32032;SDS011;31720;52.638;9.216;2024-02-04T03:56:15;12.15;;;3.17;;
32032;SDS011;31720;52.638;9.216;2024-02-04T03:59:17;6.50;;;2.45;;
32032;SDS011;31720;52.638;9.216;2024-02-04T04:02:18;4.70;;;2.53;;
32032;SDS011;31720;52.638;9.216;2024-02-04T04:05:19;9.65;;;3.13;;
32032;SDS011;31720;52.638;9.216;2024-02-04T04:08:21;12.98;;;2.50;;
32032;SDS011;31720;52.638;9.216;2024-02-04T04:11:23;8.60;;;2.10;;
32032;SDS011;31720;52.638;9.216;2024-02-04T04:14:25;10.98;;;3.00;;
32032;SDS011;31720;52.638;9.216;2024-02-04T04:17:26;6.72;;;2.50;;
32032;SDS011;31720;52.638;9.216;2024-02-04T04:20:27;8.20;;;2.13;;
32032;SDS011;31720;52.638;9.216;2024-02-04T04:23:28;5.28;;;2.22;;
32032;SDS011;31720;52.638;9.216;2024-02-04T04:26:31;11.40;;;2.75;;
32032;SDS011;31720;52.638;9.216;2024-02-04T04:29:33;8.35;;;1.40;;
32032;SDS011;31720;52.638;9.216;2024-02-04T04:32:35;10.27;;;1.92;;
32032;SDS011;31720;52.638;9.216;2024-02-04T04:35:36;5.07;;;1.85;;
32032;SDS011;31720;52.638;9.216;2024-02-04T04:38:38;3.78;;;1.60;;
32032;SDS011;31720;52.638;9.216;2024-02-04T04:41:43;14.27;;;3.67;;
32032;SDS011;31720;52.638;9.216;2024-02-04T04:44:45;8.43;;;1.88;;
32032;SDS011;31720;52.638;9.216;2024-02-04T04:47:46;5.43;;;1.80;;
32032;SDS011;31720;52.638;9.216;2024-02-04T04:50:48;5.80;;;2.40;;
32032;SDS011;31720;52.638;9.216;2024-02-04T04:53:49;5.90;;;1.27;;
32032;SDS011;31720;52.638;9.216;2024-02-04T04:56:52;7.22;;;1.80;;
32032;SDS011;31720;52.638;9.216;2024-02-04T04:59:53;5.28;;;1.55;;
32032;SDS011;31720;52.638;9.216;2024-02-04T05:02:54;4.57;;;1.30;;
32032;SDS011;31720;52.638;9.216;2024-02-04T05:05:56;6.53;;;1.67;;
32032;SDS011;31720;52.638;9.216;2024-02-04T05:08:57;9.40;;;2.17;;
32032;SDS011;31720;52.638;9.216;2024-02-04T05:12:01;3.45;;;1.75;;
32032;SDS011;31720;52.638;9.216;2024-02-04T05:15:03;5.32;;;1.92;;
32032;SDS011;31720;52.638;9.216;2024-02-04T05:18:05;10.48;;;2.08;;
32032;SDS011;31720;52.638;9.216;2024-02-04T05:21:07;6.07;;;1.30;;
32032;SDS011;31720;52.638;9.216;2024-02-04T05:24:08;16.77;;;1.65;;
32032;SDS011;31720;52.638;9.216;2024-02-04T05:27:10;4.80;;;1.60;;
32032;SDS011;31720;52.638;9.216;2024-02-04T05:30:12;5.45;;;1.20;;
32032;SDS011;31720;52.638;9.216;2024-02-04T05:33:15;13.38;;;1.73;;
32032;SDS011;31720;52.638;9.216;2024-02-04T05:36:16;9.07;;;1.50;;
32032;SDS011;31720;52.638;9.216;2024-02-04T05:39:18;4.40;;;1.30;;
32032;SDS011;31720;52.638;9.216;2024-02-04T05:42:20;5.38;;;1.77;;
32032;SDS011;31720;52.638;9.216;2024-02-04T05:45:22;4.85;;;1.45;;
32032;SDS011;31720;52.638;9.216;2024-02-04T05:48:23;7.70;;;1.65;;
32032;SDS011;31720;52.638;9.216;2024-02-04T05:51:24;4.95;;;1.35;;
32032;SDS011;31720;52.638;9.216;2024-02-04T05:54:26;12.13;;;1.33;;
32032;SDS011;31720;52.638;9.216;2024-02-04T05:57:29;10.00;;;1.10;;
32032;SDS011;31720;52.638;9.216;2024-02-04T06:00:30;5.00;;;0.95;;
32032;SDS011;31720;52.638;9.216;2024-02-04T06:03:31;9.75;;;1.17;;
32032;SDS011;31720;52.638;9.216;2024-02-04T06:06:32;4.45;;;1.25;;
32032;SDS011;31720;52.638;9.216;2024-02-04T06:09:34;7.43;;;1.40;;
32032;SDS011;31720;52.638;9.216;2024-02-04T06:12:37;7.53;;;1.90;;
32032;SDS011;31720;52.638;9.216;2024-02-04T06:15:40;5.35;;;2.92;;
32032;SDS011;31720;52.638;9.216;2024-02-04T06:18:42;5.53;;;2.78;;
32032;SDS011;31720;52.638;9.216;2024-02-04T06:21:43;13.20;;;3.63;;
32032;SDS011;31720;52.638;9.216;2024-02-04T06:24:44;15.02;;;4.18;;
32032;SDS011;31720;52.638;9.216;2024-02-04T06:27:47;10.07;;;3.67;;
32032;SDS011;31720;52.638;9.216;2024-02-04T06:30:48;9.63;;;3.13;;
32032;SDS011;31720;52.638;9.216;2024-02-04T06:33:50;14.15;;;2.65;;
32032;SDS011;31720;52.638;9.216;2024-02-04T06:36:51;11.57;;;3.60;;
32032;SDS011;31720;52.638;9.216;2024-02-04T06:39:52;7.80;;;2.70;;
32032;SDS011;31720;52.638;9.216;2024-02-04T06:42:55;8.35;;;2.03;;
32032;SDS011;31720;52.638;9.216;2024-02-04T06:45:56;3.05;;;1.85;;
32032;SDS011;31720;52.638;9.216;2024-02-04T06:48:58;6.75;;;1.85;;
32032;SDS011;31720;52.638;9.216;2024-02-04T06:51:59;4.25;;;1.73;;
32032;SDS011;31720;52.638;9.216;2024-02-04T06:55:00;2.95;;;1.35;;
32032;SDS011;31720;52.638;9.216;2024-02-04T06:58:03;7.88;;;2.15;;
32032;SDS011;31720;52.638;9.216;2024-02-04T07:01:04;5.22;;;1.38;;
32032;SDS011;31720;52.638;9.216;2024-02-04T07:04:06;6.07;;;1.10;;
32032;SDS011;31720;52.638;9.216;2024-02-04T07:07:07;6.70;;;0.98;;
32032;SDS011;31720;52.638;9.216;2024-02-04T07:10:08;5.43;;;1.05;;
32032;SDS011;31720;52.638;9.216;2024-02-04T07:13:11;8.98;;;1.20;;
32032;SDS011;31720;52.638;9.216;2024-02-04T07:16:13;2.22;;;0.90;;
32032;SDS011;31720;52.638;9.216;2024-02-04T07:19:14;7.72;;;1.23;;
32032;SDS011;31720;52.638;9.216;2024-02-04T07:22:15;8.40;;;1.17;;
32032;SDS011;31720;52.638;9.216;2024-02-04T07:25:16;9.45;;;1.13;;
32032;SDS011;31720;52.638;9.216;2024-02-04T07:28:19;6.07;;;0.98;;
32032;SDS011;31720;52.638;9.216;2024-02-04T07:31:20;12.55;;;1.30;;
32032;SDS011;31720;52.638;9.216;2024-02-04T07:34:22;8.45;;;1.90;;
32032;SDS011;31720;52.638;9.216;2024-02-04T07:37:24;7.05;;;1.20;;
32032;SDS011;31720;52.638;9.216;2024-02-04T07:40:25;3.72;;;1.00;;
32032;SDS011;31720;52.638;9.216;2024-02-04T07:43:29;3.60;;;1.33;;
32032;SDS011;31720;52.638;9.216;2024-02-04T07:46:30;1.85;;;1.00;;
32032;SDS011;31720;52.638;9.216;2024-02-04T07:49:31;10.90;;;1.50;;
32032;SDS011;31720;52.638;9.216;2024-02-04T07:52:33;5.55;;;1.08;;
32032;SDS011;31720;52.638;9.216;2024-02-04T07:55:34;10.07;;;1.30;;
32032;SDS011;31720;52.638;9.216;2024-02-04T07:58:37;8.48;;;1.75;;
32032;SDS011;31720;52.638;9.216;2024-02-04T08:01:38;3.90;;;1.17;;
32032;SDS011;31720;52.638;9.216;2024-02-04T08:04:40;9.50;;;1.30;;
32032;SDS011;31720;52.638;9.216;2024-02-04T08:07:41;5.30;;;0.93;;
32032;SDS011;31720;52.638;9.216;2024-02-04T08:10:42;8.27;;;1.33;;
32032;SDS011;31720;52.638;9.216;2024-02-04T08:13:45;3.85;;;1.05;;
32032;SDS011;31720;52.638;9.216;2024-02-04T08:16:46;6.22;;;1.35;;
32032;SDS011;31720;52.638;9.216;2024-02-04T08:19:48;5.13;;;0.90;;
32032;SDS011;31720;52.638;9.216;2024-02-04T08:22:51;5.93;;;1.08;;
32032;SDS011;31720;52.638;9.216;2024-02-04T08:25:53;6.03;;;0.90;;
32032;SDS011;31720;52.638;9.216;2024-02-04T08:28:56;8.50;;;1.17;;
32032;SDS011;31720;52.638;9.216;2024-02-04T08:31:57;5.28;;;1.20;;
32032;SDS011;31720;52.638;9.216;2024-02-04T08:34:58;14.05;;;1.85;;
32032;SDS011;31720;52.638;9.216;2024-02-04T08:37:59;7.93;;;1.08;;
32032;SDS011;31720;52.638;9.216;2024-02-04T08:41:01;4.65;;;1.35;;
32032;SDS011;31720;52.638;9.216;2024-02-04T08:44:04;6.07;;;1.42;;
32032;SDS011;31720;52.638;9.216;2024-02-04T08:47:05;10.10;;;1.88;;
32032;SDS011;31720;52.638;9.216;2024-02-04T08:50:10;4.75;;;1.20;;
32032;SDS011;31720;52.638;9.216;2024-02-04T08:53:12;8.13;;;1.27;;
32032;SDS011;31720;52.638;9.216;2024-02-04T08:56:14;12.13;;;1.45;;
32032;SDS011;31720;52.638;9.216;2024-02-04T08:59:16;5.53;;;1.50;;
32032;SDS011;31720;52.638;9.216;2024-02-04T09:02:18;10.68;;;1.10;;
32032;SDS011;31720;52.638;9.216;2024-02-04T09:05:19;11.45;;;1.58;;
32032;SDS011;31720;52.638;9.216;2024-02-04T09:08:21;9.52;;;1.73;;
32032;SDS011;31720;52.638;9.216;2024-02-04T09:11:22;3.67;;;0.95;;
32032;SDS011;31720;52.638;9.216;2024-02-04T09:14:26;12.07;;;0.93;;
32032;SDS011;31720;52.638;9.216;2024-02-04T09:17:27;3.95;;;1.13;;
32032;SDS011;31720;52.638;9.216;2024-02-04T09:20:28;10.05;;;2.17;;
32032;SDS011;31720;52.638;9.216;2024-02-04T09:23:30;6.53;;;1.13;;
32032;SDS011;31720;52.638;9.216;2024-02-04T09:26:31;1.92;;;0.90;;
32032;SDS011;31720;52.638;9.216;2024-02-04T09:29:34;4.53;;;0.80;;
32032;SDS011;31720;52.638;9.216;2024-02-04T09:32:35;14.93;;;1.80;;
32032;SDS011;31720;52.638;9.216;2024-02-04T09:35:37;9.73;;;1.13;;
32032;SDS011;31720;52.638;9.216;2024-02-04T09:38:38;6.38;;;1.23;;
32032;SDS011;31720;52.638;9.216;2024-02-04T09:41:39;4.03;;;1.42;;
32032;SDS011;31720;52.638;9.216;2024-02-04T09:44:42;12.07;;;1.25;;
32032;SDS011;31720;52.638;9.216;2024-02-04T09:47:44;6.93;;;1.08;;
32032;SDS011;31720;52.638;9.216;2024-02-04T09:50:46;2.75;;;0.88;;
32032;SDS011;31720;52.638;9.216;2024-02-04T09:53:49;4.28;;;1.30;;
32032;SDS011;31720;52.638;9.216;2024-02-04T09:56:53;8.55;;;1.20;;
32032;SDS011;31720;52.638;9.216;2024-02-04T09:59:56;6.40;;;1.60;;
32032;SDS011;31720;52.638;9.216;2024-02-04T10:02:57;5.38;;;1.05;;
32032;SDS011;31720;52.638;9.216;2024-02-04T10:05:59;4.78;;;0.90;;
32032;SDS011;31720;52.638;9.216;2024-02-04T10:09:01;3.70;;;1.10;;
32032;SDS011;31720;52.638;9.216;2024-02-04T10:12:02;5.40;;;1.20;;
32032;SDS011;31720;52.638;9.216;2024-02-04T10:15:06;2.75;;;0.90;;
32032;SDS011;31720;52.638;9.216;2024-02-04T10:18:08;3.17;;;1.17;;
32032;SDS011;31720;52.638;9.216;2024-02-04T10:21:16;14.48;;;4.20;;
32032;SDS011;31720;52.638;9.216;2024-02-04T10:24:19;14.70;;;3.20;;
32032;SDS011;31720;52.638;9.216;2024-02-04T10:27:22;8.80;;;1.48;;
32032;SDS011;31720;52.638;9.216;2024-02-04T10:30:25;8.15;;;0.88;;
32032;SDS011;31720;52.638;9.216;2024-02-04T10:33:26;13.38;;;1.95;;
32032;SDS011;31720;52.638;9.216;2024-02-04T10:36:30;9.82;;;1.52;;
32032;SDS011;31720;52.638;9.216;2024-02-04T10:39:32;8.68;;;1.25;;
32032;SDS011;31720;52.638;9.216;2024-02-04T10:42:34;7.38;;;1.33;;
32032;SDS011;31720;52.638;9.216;2024-02-04T10:45:38;9.82;;;1.25;;
32032;SDS011;31720;52.638;9.216;2024-02-04T10:48:43;9.57;;;1.20;;
32032;SDS011;31720;52.638;9.216;2024-02-04T10:51:49;6.30;;;1.40;;
32032;SDS011;31720;52.638;9.216;2024-02-04T10:54:52;5.78;;;1.58;;
32032;SDS011;31720;52.638;9.216;2024-02-04T10:57:54;8.07;;;1.38;;
32032;SDS011;31720;52.638;9.216;2024-02-04T11:00:58;9.93;;;1.85;;
32032;SDS011;31720;52.638;9.216;2024-02-04T11:04:00;7.38;;;1.60;;
32032;SDS011;31720;52.638;9.216;2024-02-04T11:07:03;12.30;;;1.70;;
32032;SDS011;31720;52.638;9.216;2024-02-04T11:10:06;6.25;;;1.67;;
32032;SDS011;31720;52.638;9.216;2024-02-04T11:13:08;9.23;;;1.30;;
32032;SDS011;31720;52.638;9.216;2024-02-04T11:16:15;12.27;;;1.63;;
32032;SDS011;31720;52.638;9.216;2024-02-04T11:19:31;11.32;;;2.08;;
32032;SDS011;31720;52.638;9.216;2024-02-04T11:26:18;8.30;;;1.20;;
32032;SDS011;31720;52.638;9.216;2024-02-04T11:29:22;10.38;;;1.98;;
32032;SDS011;31720;52.638;9.216;2024-02-04T11:32:25;8.77;;;1.75;;
32032;SDS011;31720;52.638;9.216;2024-02-04T11:35:26;5.10;;;1.48;;
32032;SDS011;31720;52.638;9.216;2024-02-04T11:38:31;14.07;;;1.80;;
32032;SDS011;31720;52.638;9.216;2024-02-04T11:41:33;8.07;;;1.73;;
32032;SDS011;31720;52.638;9.216;2024-02-04T11:44:45;2.83;;;1.30;;
32032;SDS011;31720;52.638;9.216;2024-02-04T11:47:48;12.70;;;1.65;;
32032;SDS011;31720;52.638;9.216;2024-02-04T11:51:01;6.57;;;1.30;;
32032;SDS011;31720;52.638;9.216;2024-02-04T11:54:02;4.80;;;1.17;;
32032;SDS011;31720;52.638;9.216;2024-02-04T11:57:05;7.80;;;1.45;;
32032;SDS011;31720;52.638;9.216;2024-02-04T12:00:07;7.05;;;1.10;;
32032;SDS011;31720;52.638;9.216;2024-02-04T12:03:12;17.30;;;1.30;;
32032;SDS011;31720;52.638;9.216;2024-02-04T12:06:13;4.78;;;1.40;;
32032;SDS011;31720;52.638;9.216;2024-02-04T12:09:16;11.10;;;1.65;;
32032;SDS011;31720;52.638;9.216;2024-02-04T12:12:19;11.35;;;1.77;;
32032;SDS011;31720;52.638;9.216;2024-02-04T12:15:21;9.05;;;1.58;;
32032;SDS011;31720;52.638;9.216;2024-02-04T12:18:24;10.93;;;2.08;;
32032;SDS011;31720;52.638;9.216;2024-02-04T12:21:25;4.50;;;1.20;;
32032;SDS011;31720;52.638;9.216;2024-02-04T12:24:27;10.70;;;1.48;;
32032;SDS011;31720;52.638;9.216;2024-02-04T12:27:29;6.18;;;1.50;;
32032;SDS011;31720;52.638;9.216;2024-02-04T12:30:31;6.85;;;1.45;;
32032;SDS011;31720;52.638;9.216;2024-02-04T12:33:34;2.08;;;0.93;;
32032;SDS011;31720;52.638;9.216;2024-02-04T12:36:37;3.00;;;0.77;;
32032;SDS011;31720;52.638;9.216;2024-02-04T12:39:39;3.78;;;1.05;;
32032;SDS011;31720;52.638;9.216;2024-02-04T12:42:40;11.20;;;2.25;;
32032;SDS011;31720;52.638;9.216;2024-02-04T12:45:42;8.75;;;1.33;;
32032;SDS011;31720;52.638;9.216;2024-02-04T12:48:44;4.60;;;0.98;;
32032;SDS011;31720;52.638;9.216;2024-02-04T12:51:46;8.85;;;1.25;;
32032;SDS011;31720;52.638;9.216;2024-02-04T12:54:48;12.13;;;1.40;;
32032;SDS011;31720;52.638;9.216;2024-02-04T12:57:50;0.88;;;0.65;;
32032;SDS011;31720;52.638;9.216;2024-02-04T13:00:58;3.13;;;0.90;;
32032;SDS011;31720;52.638;9.216;2024-02-04T13:07:06;8.75;;;1.58;;
32032;SDS011;31720;52.638;9.216;2024-02-04T13:10:09;3.33;;;1.02;;
32032;SDS011;31720;52.638;9.216;2024-02-04T13:13:14;5.32;;;1.45;;
32032;SDS011;31720;52.638;9.216;2024-02-04T13:16:16;5.53;;;1.10;;
32032;SDS011;31720;52.638;9.216;2024-02-04T13:19:20;10.30;;;1.30;;
32032;SDS011;31720;52.638;9.216;2024-02-04T13:22:22;9.05;;;2.95;;
32032;SDS011;31720;52.638;9.216;2024-02-04T13:25:23;7.68;;;2.20;;
32032;SDS011;31720;52.638;9.216;2024-02-04T13:28:24;10.63;;;2.13;;
32032;SDS011;31720;52.638;9.216;2024-02-04T13:31:26;12.93;;;1.90;;
32032;SDS011;31720;52.638;9.216;2024-02-04T13:34:29;11.38;;;2.08;;
32032;SDS011;31720;52.638;9.216;2024-02-04T13:37:31;8.15;;;1.25;;
32032;SDS011;31720;52.638;9.216;2024-02-04T13:40:32;6.45;;;1.55;;
32032;SDS011;31720;52.638;9.216;2024-02-04T13:43:33;11.73;;;1.85;;
32032;SDS011;31720;52.638;9.216;2024-02-04T13:46:35;3.33;;;1.35;;
32032;SDS011;31720;52.638;9.216;2024-02-04T13:49:38;8.48;;;3.33;;
32032;SDS011;31720;52.638;9.216;2024-02-04T13:52:40;17.08;;;4.22;;
32032;SDS011;31720;52.638;9.216;2024-02-04T13:55:41;7.50;;;2.00;;
32032;SDS011;31720;52.638;9.216;2024-02-04T13:58:43;6.65;;;1.15;;
32032;SDS011;31720;52.638;9.216;2024-02-04T14:01:44;2.20;;;0.77;;
32032;SDS011;31720;52.638;9.216;2024-02-04T14:04:47;5.80;;;0.77;;
32032;SDS011;31720;52.638;9.216;2024-02-04T14:07:48;4.05;;;0.95;;
32032;SDS011;31720;52.638;9.216;2024-02-04T14:10:50;1.90;;;0.63;;
32032;SDS011;31720;52.638;9.216;2024-02-04T14:13:51;6.80;;;1.08;;
32032;SDS011;31720;52.638;9.216;2024-02-04T14:16:52;2.75;;;1.02;;
32032;SDS011;31720;52.638;9.216;2024-02-04T14:19:56;2.40;;;0.90;;
32032;SDS011;31720;52.638;9.216;2024-02-04T14:22:58;15.45;;;0.90;;
32032;SDS011;31720;52.638;9.216;2024-02-04T14:26:00;2.42;;;1.02;;
32032;SDS011;31720;52.638;9.216;2024-02-04T14:29:02;7.32;;;1.30;;
32032;SDS011;31720;52.638;9.216;2024-02-04T14:32:04;3.03;;;0.80;;
32032;SDS011;31720;52.638;9.216;2024-02-04T14:35:07;1.83;;;0.80;;
32032;SDS011;31720;52.638;9.216;2024-02-04T14:38:09;1.80;;;0.80;;
32032;SDS011;31720;52.638;9.216;2024-02-04T14:41:11;5.75;;;1.00;;
32032;SDS011;31720;52.638;9.216;2024-02-04T14:44:13;3.88;;;1.10;;
32032;SDS011;31720;52.638;9.216;2024-02-04T14:47:14;16.65;;;1.70;;
32032;SDS011;31720;52.638;9.216;2024-02-04T14:50:17;4.55;;;0.98;;
32032;SDS011;31720;52.638;9.216;2024-02-04T14:53:18;2.40;;;1.10;;
32032;SDS011;31720;52.638;9.216;2024-02-04T14:56:20;5.47;;;1.07;;
32032;SDS011;31720;52.638;9.216;2024-02-04T14:59:21;4.45;;;1.08;;
32032;SDS011;31720;52.638;9.216;2024-02-04T15:02:22;5.85;;;1.02;;
32032;SDS011;31720;52.638;9.216;2024-02-04T15:05:25;4.15;;;1.10;;
32032;SDS011;31720;52.638;9.216;2024-02-04T15:08:26;7.40;;;1.60;;
32032;SDS011;31720;52.638;9.216;2024-02-04T15:11:28;8.60;;;1.45;;
32032;SDS011;31720;52.638;9.216;2024-02-04T15:14:30;6.78;;;2.22;;
32032;SDS011;31720;52.638;9.216;2024-02-04T15:17:32;3.50;;;1.15;;
32032;SDS011;31720;52.638;9.216;2024-02-04T15:20:35;6.40;;;1.02;;
32032;SDS011;31720;52.638;9.216;2024-02-04T15:23:37;2.38;;;1.13;;
32032;SDS011;31720;52.638;9.216;2024-02-04T15:26:39;9.35;;;1.40;;
32032;SDS011;31720;52.638;9.216;2024-02-04T15:29:43;2.75;;;1.00;;
32032;SDS011;31720;52.638;9.216;2024-02-04T15:32:47;8.15;;;1.75;;
32032;SDS011;31720;52.638;9.216;2024-02-04T15:35:52;3.30;;;1.02;;
32032;SDS011;31720;52.638;9.216;2024-02-04T15:38:53;2.63;;;1.35;;
32032;SDS011;31720;52.638;9.216;2024-02-04T15:41:55;4.57;;;1.05;;
32032;SDS011;31720;52.638;9.216;2024-02-04T15:44:56;1.63;;;0.70;;
32032;SDS011;31720;52.638;9.216;2024-02-04T15:47:57;5.30;;;1.30;;
32032;SDS011;31720;52.638;9.216;2024-02-04T15:51:06;3.50;;;1.50;;
32032;SDS011;31720;52.638;9.216;2024-02-04T15:54:08;4.38;;;0.82;;
32032;SDS011;31720;52.638;9.216;2024-02-04T15:57:10;5.07;;;1.00;;
32032;SDS011;31720;52.638;9.216;2024-02-04T16:00:13;2.45;;;0.75;;
32032;SDS011;31720;52.638;9.216;2024-02-04T16:03:22;7.90;;;1.10;;
32032;SDS011;31720;52.638;9.216;2024-02-04T16:06:25;4.47;;;1.10;;
32032;SDS011;31720;52.638;9.216;2024-02-04T16:09:28;7.68;;;2.65;;
32032;SDS011;31720;52.638;9.216;2024-02-04T16:12:29;3.60;;;0.80;;
32032;SDS011;31720;52.638;9.216;2024-02-04T16:15:31;3.92;;;1.10;;
32032;SDS011;31720;52.638;9.216;2024-02-04T16:18:34;6.68;;;1.20;;
32032;SDS011;31720;52.638;9.216;2024-02-04T16:21:37;3.55;;;0.80;;
32032;SDS011;31720;52.638;9.216;2024-02-04T16:24:39;7.35;;;1.23;;
32032;SDS011;31720;52.638;9.216;2024-02-04T16:27:41;4.53;;;0.80;;
32032;SDS011;31720;52.638;9.216;2024-02-04T16:30:42;5.93;;;0.80;;
32032;SDS011;31720;52.638;9.216;2024-02-04T16:33:44;5.15;;;1.35;;
32032;SDS011;31720;52.638;9.216;2024-02-04T16:36:47;7.18;;;1.25;;
32032;SDS011;31720;52.638;9.216;2024-02-04T16:39:49;4.63;;;1.63;;
32032;SDS011;31720;52.638;9.216;2024-02-04T16:42:50;6.22;;;1.27;;
32032;SDS011;31720;52.638;9.216;2024-02-04T16:45:52;2.08;;;1.08;;
32032;SDS011;31720;52.638;9.216;2024-02-04T16:48:53;4.40;;;1.17;;
32032;SDS011;31720;52.638;9.216;2024-02-04T16:51:56;2.45;;;1.23;;
32032;SDS011;31720;52.638;9.216;2024-02-04T16:54:57;3.78;;;0.88;;
32032;SDS011;31720;52.638;9.216;2024-02-04T16:57:59;2.13;;;0.98;;
32032;SDS011;31720;52.638;9.216;2024-02-04T17:01:00;2.50;;;1.27;;
32032;SDS011;31720;52.638;9.216;2024-02-04T17:04:02;3.10;;;1.15;;
32032;SDS011;31720;52.638;9.216;2024-02-04T17:07:07;2.05;;;0.93;;
32032;SDS011;31720;52.638;9.216;2024-02-04T17:10:10;3.38;;;1.38;;
32032;SDS011;31720;52.638;9.216;2024-02-04T17:13:13;5.95;;;1.30;;
32032;SDS011;31720;52.638;9.216;2024-02-04T17:16:16;0.85;;;0.80;;
32032;SDS011;31720;52.638;9.216;2024-02-04T17:19:25;4.15;;;1.33;;
32032;SDS011;31720;52.638;9.216;2024-02-04T17:22:37;2.72;;;1.13;;
32032;SDS011;31720;52.638;9.216;2024-02-04T17:25:39;9.75;;;1.63;;
32032;SDS011;31720;52.638;9.216;2024-02-04T17:28:43;2.70;;;1.10;;
32032;SDS011;31720;52.638;9.216;2024-02-04T17:31:45;6.82;;;2.53;;
32032;SDS011;31720;52.638;9.216;2024-02-04T17:34:47;1.42;;;1.20;;
32032;SDS011;31720;52.638;9.216;2024-02-04T17:37:50;1.75;;;1.42;;
32032;SDS011;31720;52.638;9.216;2024-02-04T17:40:51;4.78;;;2.05;;
32032;SDS011;31720;52.638;9.216;2024-02-04T17:43:53;5.28;;;1.48;;
32032;SDS011;31720;52.638;9.216;2024-02-04T17:46:54;3.25;;;1.52;;
32032;SDS011;31720;52.638;9.216;2024-02-04T17:49:56;3.67;;;1.85;;
32032;SDS011;31720;52.638;9.216;2024-02-04T17:52:58;7.05;;;2.72;;
32032;SDS011;31720;52.638;9.216;2024-02-04T17:56:00;4.13;;;2.88;;
32032;SDS011;31720;52.638;9.216;2024-02-04T17:59:01;3.80;;;2.83;;
32032;SDS011;31720;52.638;9.216;2024-02-04T18:02:03;7.65;;;3.10;;
32032;SDS011;31720;52.638;9.216;2024-02-04T18:05:04;3.35;;;2.13;;
32032;SDS011;31720;52.638;9.216;2024-02-04T18:08:07;11.20;;;3.08;;
32032;SDS011;31720;52.638;9.216;2024-02-04T18:11:18;4.68;;;2.20;;
32032;SDS011;31720;52.638;9.216;2024-02-04T18:14:22;3.58;;;2.40;;
32032;SDS011;31720;52.638;9.216;2024-02-04T18:17:23;7.05;;;2.95;;
32032;SDS011;31720;52.638;9.216;2024-02-04T18:20:25;6.70;;;2.95;;